M I D A S
Marine Information and Data Acquisition System
Tripno 1232 of the Zeeleeuw from 2007-03-16 08:07:43 to 2007-03-16 14:35:49
Back to CruiseResearch ActivitiesStationsMapUnderway DataData graphs

EquipmentUnitsComment
TimeDGPSUTC
LatitudeDGPSDM.mWGS84
LongitudeDGPSDM.mWGS84
HeadingGyrodeg 
SOGDGPSknotsSpeed over ground
COGDGPSdegCourse over ground
DepthEcho soundermeters200 kHz
Missing or incorrect values are displayed as -999
Navigation data collected by the RV Zeeleeuw from 2007-03-16 08:07:44 to 2007-03-16 14:45:47
Time Latitude Longitude Heading SOG COG Depth
2007-03-16 08:08:49 51°13.614 2°56.038 119.7 3.8 296 -999
2007-03-16 08:09:49 51°13.653 2°55.918 120.5 5.8 298 -999
2007-03-16 08:10:49 51°13.681 2°55.804 97.9 3.7 282 -999
2007-03-16 08:11:49 51°13.683 2°55.736 66 0.9 263 -999
2007-03-16 08:12:49 51°13.708 2°55.743 355 2.6 355 -999
2007-03-16 08:13:49 51°13.791 2°55.666 334.5 8.7 331 -999
2007-03-16 08:14:49 51°13.936 2°55.558 341.1 9.3 336 -999
2007-03-16 08:15:49 51°14.057 2°55.472 339.7 7.3 336 -999
2007-03-16 08:16:49 51°14.179 2°55.372 330.4 10.1 329 -999
2007-03-16 08:17:49 51°14.316 2°55.158 313.8 12.9 310 -999
2007-03-16 08:18:49 51°14.437 2°54.867 288 13.1 290 -999
2007-03-16 08:19:49 51°14.431 2°54.53 248.9 12.8 249 -999
2007-03-16 08:20:49 51°14.322 2°54.24 242.4 12.9 240 -999
2007-03-16 08:21:49 51°14.209 2°53.948 241.9 13 238 -999
2007-03-16 08:22:49 51°14.097 2°53.655 242.4 13 239 -999
2007-03-16 08:23:49 51°13.985 2°53.361 242.3 13 239 -999
2007-03-16 08:24:49 51°13.874 2°53.067 242.9 12.9 239 -999
2007-03-16 08:25:49 51°13.764 2°52.771 243.5 13 239 -999
2007-03-16 08:26:49 51°13.655 2°52.471 243.6 13.1 239 -999
2007-03-16 08:27:49 51°13.545 2°52.171 242.8 13.1 239 -999
2007-03-16 08:28:49 51°13.434 2°51.871 243 13.2 240 -999
2007-03-16 08:29:49 51°13.323 2°51.571 243.1 13.2 240 -999
2007-03-16 08:30:49 51°13.212 2°51.273 242.8 13 239 -999
2007-03-16 08:31:49 51°13.104 2°50.976 245.7 12.9 243 -999
2007-03-16 08:32:50 51°13.001 2°50.67 244.9 12.9 243 -999
2007-03-16 08:33:49 51°12.9 2°50.375 245.5 12.9 241 -999
2007-03-16 08:34:50 51°12.799 2°50.067 245.3 12.9 242 -999
2007-03-16 08:35:50 51°12.698 2°49.764 245.3 12.9 241 -999
2007-03-16 08:36:50 51°12.599 2°49.462 245.3 12.8 242 -999
2007-03-16 08:37:50 51°12.499 2°49.16 245.4 12.9 241 -999
2007-03-16 08:38:50 51°12.4 2°48.859 245.5 12.8 242 -999
2007-03-16 08:39:49 51°12.304 2°48.563 250.3 12.8 247 -999
2007-03-16 08:40:50 51°12.232 2°48.238 253.8 12.8 251 -999
2007-03-16 08:41:50 51°12.164 2°47.917 255.9 12.8 253 -999
2007-03-16 08:42:49 51°12.105 2°47.595 256.6 12.9 254 -999
2007-03-16 08:43:50 51°12.049 2°47.262 266.1 12.8 262 -999
2007-03-16 08:44:49 51°12.036 2°46.927 265.6 12.9 264 14.8
2007-03-16 08:45:47 51°12.003 2°46.603 263 12.8 261 15
2007-03-16 08:46:45 51°11.967 2°46.284 263 12.6 260 15
2007-03-16 08:47:45 51°11.931 2°45.958 263.2 12.5 260 15
2007-03-16 08:48:45 51°11.895 2°45.632 262.8 12.5 260 14.9
2007-03-16 08:49:46 51°11.857 2°45.301 262.3 12.5 260 14.7
2007-03-16 08:50:45 51°11.821 2°44.982 262.2 12.4 259 14.1
2007-03-16 08:51:45 51°11.784 2°44.66 262.7 12.4 260 13.8
2007-03-16 08:52:45 51°11.746 2°44.336 262.2 12.4 260 13.5
2007-03-16 08:53:45 51°11.707 2°44.012 262.4 12.4 259 13.2
2007-03-16 08:54:45 51°11.67 2°43.687 262 12.4 259 13.1
2007-03-16 08:55:45 51°11.633 2°43.363 262.4 12.4 260 12.6
2007-03-16 08:56:45 51°11.597 2°43.037 262 12.5 260 12.8
2007-03-16 08:57:45 51°11.56 2°42.713 261.7 12.4 260 13.1
2007-03-16 08:58:45 51°11.519 2°42.392 257.4 12.4 255 13.2
2007-03-16 08:59:45 51°11.459 2°42.076 255.4 12.5 253 13.3
2007-03-16 09:00:45 51°11.4 2°41.759 256.2 12.5 254 13.8
2007-03-16 09:01:45 51°11.342 2°41.444 256.3 12.3 254 14.4
2007-03-16 09:02:45 51°11.284 2°41.131 256.2 12.4 254 15.1
2007-03-16 09:03:45 51°11.228 2°40.817 256.5 12.3 255 16.1
2007-03-16 09:04:45 51°11.174 2°40.503 256.7 12.3 254 16.9
2007-03-16 09:05:45 51°11.104 2°40.198 251.1 12.3 249 17.6
2007-03-16 09:06:45 51°11.015 2°39.909 237.4 12.2 229 18.1
2007-03-16 09:07:46 51°10.86 2°39.688 223.7 12.3 218 17.9
2007-03-16 09:08:46 51°10.699 2°39.483 223.9 12.5 219 17.4
2007-03-16 09:09:46 51°10.539 2°39.273 224.2 12.5 220 17.8
2007-03-16 09:10:46 51°10.379 2°39.062 224.9 12.4 220 17.8
2007-03-16 09:11:46 51°10.219 2°38.847 226.3 12.6 223 17.6
2007-03-16 09:12:46 51°10.064 2°38.623 226.7 12.6 221 17.6
2007-03-16 09:13:46 51°9.907 2°38.405 225.9 12.5 221 17.2
2007-03-16 09:14:45 51°9.754 2°38.191 226.2 12.5 222 16.2
2007-03-16 09:15:45 51°9.597 2°37.976 226.3 12.4 221 15
2007-03-16 09:16:46 51°9.443 2°37.75 230.8 12.3 227 14.2
2007-03-16 09:17:46 51°9.35 2°37.577 237.7 6.3 229 14
2007-03-16 09:18:46 51°9.291 2°37.48 233.3 4.4 223 13.7
2007-03-16 09:19:46 51°9.247 2°37.403 244.8 3.6 238 13.6
2007-03-16 09:20:46 51°9.217 2°37.325 242.3 3.4 233 13.4
2007-03-16 09:21:46 51°9.188 2°37.251 249.5 3.2 240 13.4
2007-03-16 09:22:46 51°9.161 2°37.181 258 2.9 257 13.2
2007-03-16 09:23:46 51°9.158 2°37.143 280.5 0.4 9 13.3
2007-03-16 09:24:46 51°9.167 2°37.151 300.3 0.7 39 13.4
2007-03-16 09:25:46 51°9.176 2°37.166 304.1 0.8 53 13.4
2007-03-16 09:26:46 51°9.183 2°37.186 304.1 0.9 61 13.5
2007-03-16 09:27:46 51°9.19 2°37.207 302.7 0.9 67 13.5
2007-03-16 09:28:46 51°9.196 2°37.231 301.8 1 70 13.5
2007-03-16 09:29:46 51°9.201 2°37.257 300.4 1.1 73 13.5
2007-03-16 09:30:46 51°9.206 2°37.283 297.7 1.1 74 13.5
2007-03-16 09:31:46 51°9.211 2°37.31 294.3 1 75 13.5
2007-03-16 09:32:46 51°9.215 2°37.338 290.9 1 71 13.5
2007-03-16 09:33:46 51°9.22 2°37.364 288.1 1 76 13.5
2007-03-16 09:34:46 51°9.225 2°37.39 286 1 76 13.5
2007-03-16 09:35:46 51°9.229 2°37.417 282.5 1.1 76 13.5
2007-03-16 09:36:46 51°9.233 2°37.445 278.5 1.1 77 13.4
2007-03-16 09:37:46 51°9.236 2°37.474 273 1.1 79 13.4
2007-03-16 09:38:46 51°9.237 2°37.503 266.6 1.1 81 13.4
2007-03-16 09:39:46 51°9.24 2°37.533 261.2 1.1 84 13.3
2007-03-16 09:40:46 51°9.242 2°37.564 254.7 1.1 84 13.4
2007-03-16 09:41:46 51°9.244 2°37.594 250 1.2 85 13.3
2007-03-16 09:42:46 51°9.247 2°37.625 245.5 1.1 82 13.3
2007-03-16 09:43:46 51°9.249 2°37.655 243.2 1.1 82 13.2
2007-03-16 09:44:46 51°9.251 2°37.685 240.9 1.1 83 13.2
2007-03-16 09:45:46 51°9.253 2°37.714 238.7 1.1 83 13.2
2007-03-16 09:46:46 51°9.254 2°37.742 238.6 1 83 13.2
2007-03-16 09:47:46 51°9.257 2°37.769 240.5 1 79 13.1
2007-03-16 09:48:46 51°9.26 2°37.795 242.6 1 78 13.1
2007-03-16 09:49:46 51°9.263 2°37.822 244.6 1 82 13.1
2007-03-16 09:50:46 51°9.265 2°37.849 245.8 1 81 13
2007-03-16 09:51:46 51°9.268 2°37.876 244 1 82 13
2007-03-16 09:52:46 51°9.271 2°37.902 246.2 1 79 13.1
2007-03-16 09:53:46 51°9.274 2°37.928 247.6 1 80 13
2007-03-16 09:54:46 51°9.278 2°37.953 249.6 1 80 13
2007-03-16 09:55:46 51°9.282 2°37.979 251.9 1 76 13
2007-03-16 09:56:46 51°9.285 2°38.005 254.2 1 74 13
2007-03-16 09:57:46 51°9.289 2°38.031 255.6 1 74 13
2007-03-16 09:58:46 51°9.293 2°38.057 257.6 1 73 13.1
2007-03-16 09:59:46 51°9.297 2°38.083 259.7 1 72 13.1
2007-03-16 10:00:46 51°9.302 2°38.11 261 1 72 13.1
2007-03-16 10:01:46 51°9.306 2°38.136 262 1 72 13.1
2007-03-16 10:02:46 51°9.312 2°38.162 263.7 1 71 13
2007-03-16 10:03:46 51°9.317 2°38.187 264 1 73 13.1
2007-03-16 10:04:46 51°9.321 2°38.213 262.7 1 71 13
2007-03-16 10:05:46 51°9.326 2°38.239 261.7 1 72 13
2007-03-16 10:06:46 51°9.331 2°38.264 262.2 1 70 13
2007-03-16 10:07:46 51°9.336 2°38.288 263.4 1 72 13
2007-03-16 10:08:46 51°9.342 2°38.313 262.9 1 71 13
2007-03-16 10:09:46 51°9.347 2°38.338 261.2 1 70 13
2007-03-16 10:10:46 51°9.352 2°38.364 261.2 1 73 13
2007-03-16 10:11:46 51°9.357 2°38.389 262.1 1 74 12.9
2007-03-16 10:12:46 51°9.363 2°38.414 262.6 1 73 12.9
2007-03-16 10:13:46 51°9.368 2°38.439 261.2 1 73 12.9
2007-03-16 10:14:46 51°9.373 2°38.464 260.5 1 75 12.9
2007-03-16 10:15:46 51°9.378 2°38.49 258.7 1 74 12.9
2007-03-16 10:16:46 51°9.382 2°38.515 257 1 79 12.9
2007-03-16 10:17:46 51°9.387 2°38.541 254 1 70 12.9
2007-03-16 10:18:46 51°9.392 2°38.565 253 1 75 12.9
2007-03-16 10:19:46 51°9.397 2°38.591 251.1 1 73 12.9
2007-03-16 10:20:46 51°9.401 2°38.617 251.1 1 79 12.9
2007-03-16 10:21:46 51°9.407 2°38.642 251.7 1 75 12.8
2007-03-16 10:22:46 51°9.411 2°38.666 251.3 0.7 75 12.8
2007-03-16 10:23:46 51°9.412 2°38.673 251 0.1 246 12.7
2007-03-16 10:24:46 51°9.408 2°38.663 251.8 0.7 245 12.8
2007-03-16 10:25:46 51°9.403 2°38.64 250.8 1.1 249 12.8
2007-03-16 10:26:46 51°9.396 2°38.612 251.1 1.1 251 12.8
2007-03-16 10:27:46 51°9.39 2°38.59 248.2 0.9 241 12.8
2007-03-16 10:28:46 51°9.383 2°38.57 247.2 0.8 239 12.7
2007-03-16 10:29:46 51°9.377 2°38.553 247.5 0.8 242 12.8
2007-03-16 10:30:46 51°9.371 2°38.535 250.8 0.7 246 12.7
2007-03-16 10:31:46 51°9.367 2°38.517 253.8 0.8 252 12.8
2007-03-16 10:32:46 51°9.363 2°38.496 255.2 0.9 259 12.8
2007-03-16 10:33:46 51°9.36 2°38.474 253.9 0.9 253 12.8
2007-03-16 10:34:46 51°9.355 2°38.451 251.3 0.9 252 12.7
2007-03-16 10:35:46 51°9.35 2°38.429 251.1 0.9 248 12.7
2007-03-16 10:36:46 51°9.345 2°38.408 250.8 0.9 245 12.8
2007-03-16 10:37:46 51°9.338 2°38.387 247.2 0.9 235 12.7
2007-03-16 10:38:46 51°9.331 2°38.367 248.6 0.9 240 12.8
2007-03-16 10:39:46 51°9.325 2°38.346 251.8 0.9 248 12.8
2007-03-16 10:40:46 51°9.32 2°38.324 253.7 0.9 253 12.8
2007-03-16 10:41:46 51°9.315 2°38.302 253.7 0.9 254 12.7
2007-03-16 10:42:46 51°9.31 2°38.281 251.9 0.9 249 12.8
2007-03-16 10:43:46 51°9.304 2°38.258 252.5 0.9 247 12.8
2007-03-16 10:44:46 51°9.301 2°38.233 257 1 260 12.7
2007-03-16 10:45:46 51°9.298 2°38.207 254.7 1 260 12.9
2007-03-16 10:46:46 51°9.293 2°38.185 247.4 0.9 245 12.8
2007-03-16 10:47:46 51°9.286 2°38.166 244.6 0.8 232 12.7
2007-03-16 10:48:46 51°9.279 2°38.146 246.7 0.8 240 12.8
2007-03-16 10:49:46 51°9.274 2°38.127 251.4 0.8 253 12.7
2007-03-16 10:50:46 51°9.271 2°38.107 253.1 0.8 256 12.7
2007-03-16 10:51:46 51°9.268 2°38.087 252.5 0.7 256 12.7
2007-03-16 10:52:46 51°9.265 2°38.069 251.1 0.7 257 12.7
2007-03-16 10:53:46 51°9.262 2°38.05 250.8 0.7 251 12.7
2007-03-16 10:54:46 51°9.258 2°38.032 251.8 0.8 255 12.7
2007-03-16 10:55:46 51°9.255 2°38.012 255.3 0.8 259 12.7
2007-03-16 10:56:46 51°9.254 2°37.99 255.6 0.8 263 12.7
2007-03-16 10:57:46 51°9.253 2°37.975 253.6 0.4 262 12.7
2007-03-16 10:58:46 51°9.254 2°37.969 254.2 0.1 302 12.7
2007-03-16 10:59:46 51°9.257 2°37.97 256.8 0.3 32 12.7
2007-03-16 11:00:46 51°9.261 2°37.974 262.2 0.4 35 12.8
2007-03-16 11:01:46 51°9.267 2°37.983 268 0.5 52 12.8
2007-03-16 11:02:46 51°9.274 2°37.993 274.7 0.6 46 12.8
2007-03-16 11:03:46 51°9.282 2°38.006 280.7 0.8 43 12.8
2007-03-16 11:04:46 51°9.291 2°38.021 288.7 0.8 49 12.9
2007-03-16 11:05:46 51°9.3 2°38.04 298 1 51 12.8
2007-03-16 11:06:46 51°9.31 2°38.06 308.4 1 52 12.9
2007-03-16 11:07:46 51°9.32 2°38.082 320.2 1 52 13
2007-03-16 11:08:46 51°9.331 2°38.105 331.8 1.1 55 12.9
2007-03-16 11:09:46 51°9.342 2°38.13 342.6 1.2 56 13
2007-03-16 11:10:46 51°9.351 2°38.156 349.3 1.1 60 13.1
2007-03-16 11:11:46 51°9.361 2°38.182 353.8 1.1 61 13
2007-03-16 11:12:46 51°9.37 2°38.208 359.8 1.2 65 13
2007-03-16 11:13:46 51°9.379 2°38.236 5.8 1.2 64 13
2007-03-16 11:14:46 51°9.387 2°38.264 12 1.2 65 13
2007-03-16 11:15:46 51°9.395 2°38.292 18.5 1.2 65 13
2007-03-16 11:16:46 51°9.402 2°38.32 25.7 1.2 67 13
2007-03-16 11:17:46 51°9.41 2°38.349 30.9 1.1 66 12.9
2007-03-16 11:18:46 51°9.416 2°38.378 34.2 1.2 72 13
2007-03-16 11:19:46 51°9.423 2°38.406 37.3 1.1 70 13
2007-03-16 11:20:46 51°9.429 2°38.434 38.4 1.1 67 13
2007-03-16 11:21:46 51°9.436 2°38.463 39.9 1.2 72 13
2007-03-16 11:22:46 51°9.442 2°38.492 40.7 1.2 73 12.9
2007-03-16 11:23:46 51°9.449 2°38.521 40.5 1.2 70 12.9
2007-03-16 11:24:46 51°9.455 2°38.55 38.5 1.2 72 12.9
2007-03-16 11:25:46 51°9.462 2°38.579 35.6 1.2 69 12.9
2007-03-16 11:26:46 51°9.468 2°38.608 32.4 1.2 71 12.9
2007-03-16 11:27:46 51°9.475 2°38.637 31.4 1.1 69 12.8
2007-03-16 11:28:46 51°9.482 2°38.666 29.6 1.2 70 12.8
2007-03-16 11:29:46 51°9.489 2°38.694 28.2 1.1 68 12.8
2007-03-16 11:30:46 51°9.495 2°38.722 27.6 1.1 69 12.8
2007-03-16 11:31:46 51°9.501 2°38.751 26.7 1.1 71 12.8
2007-03-16 11:32:46 51°9.507 2°38.78 24.6 1.1 71 12.7
2007-03-16 11:33:46 51°9.513 2°38.808 23.6 1.1 67 12.7
2007-03-16 11:34:46 51°9.52 2°38.837 21.7 1.2 71 12.6
2007-03-16 11:35:46 51°9.525 2°38.865 21.1 1.1 73 12.7
2007-03-16 11:36:46 51°9.531 2°38.894 22.8 1.1 72 12.7
2007-03-16 11:37:46 51°9.537 2°38.923 26.2 1.2 69 12.6
2007-03-16 11:38:46 51°9.559 2°38.979 65.4 3.8 65 12.6
2007-03-16 11:39:46 51°9.558 2°39.078 121.5 3.2 106 12.4
2007-03-16 11:40:46 51°9.536 2°39.141 153.5 2.2 130 12.2
2007-03-16 11:41:46 51°9.515 2°39.178 163.2 1.7 130 12
2007-03-16 11:42:46 51°9.499 2°39.209 172.7 1.4 128 11.9
2007-03-16 11:43:46 51°9.473 2°39.234 186.5 2.9 168 11.7
2007-03-16 11:44:46 51°9.41 2°39.209 216.4 4.6 208 11.5
2007-03-16 11:45:46 51°9.356 2°39.14 235.9 3.6 227 11.3
2007-03-16 11:46:46 51°9.327 2°39.069 247.9 3 240 11.3
2007-03-16 11:47:46 51°9.297 2°39.008 241.6 2.9 233 11.2
2007-03-16 11:48:46 51°9.276 2°38.939 252.6 3 249 11.2
2007-03-16 11:49:46 51°9.26 2°38.858 257 3.3 254 11.3
2007-03-16 11:50:46 51°9.246 2°38.774 258.3 3.2 255 11.2
2007-03-16 11:51:46 51°9.233 2°38.695 258.8 3 256 11.3
2007-03-16 11:52:46 51°9.221 2°38.618 258.2 3 256 11.2
2007-03-16 11:53:46 51°9.208 2°38.542 257.6 3 255 11.2
2007-03-16 11:54:46 51°9.195 2°38.465 258 3 255 11.3
2007-03-16 11:55:46 51°9.183 2°38.386 257.7 3.1 254 11.4
2007-03-16 11:56:46 51°9.171 2°38.306 257.4 3.1 256 11.3
2007-03-16 11:57:46 51°9.16 2°38.227 257.6 3 258 11.4
2007-03-16 11:58:46 51°9.148 2°38.15 256.8 3 256 11.5
2007-03-16 11:59:46 51°9.136 2°38.073 257.2 3 257 11.4
2007-03-16 12:00:46 51°9.125 2°37.996 257.1 3 256 11.4
2007-03-16 12:01:46 51°9.113 2°37.92 256.8 3 256 11.4
2007-03-16 12:02:46 51°9.102 2°37.844 257.4 2.9 257 11.4
2007-03-16 12:03:46 51°9.091 2°37.769 257 2.9 257 11.4
2007-03-16 12:04:46 51°9.08 2°37.693 257.6 3 256 11.4
2007-03-16 12:05:46 51°9.068 2°37.618 257.4 2.9 256 11.5
2007-03-16 12:06:46 51°9.056 2°37.542 257.1 3 255 11.5
2007-03-16 12:07:46 51°9.045 2°37.466 257.3 3 256 11.5
2007-03-16 12:08:46 51°9.033 2°37.39 257 2.9 254 11.4
2007-03-16 12:09:46 51°9.02 2°37.315 256.8 3 256 11.3
2007-03-16 12:10:46 51°9.008 2°37.24 257.4 3 257 11.2
2007-03-16 12:11:46 51°8.996 2°37.164 257.5 3 256 11.2
2007-03-16 12:12:46 51°8.983 2°37.087 257.2 3 255 11.1
2007-03-16 12:13:46 51°8.971 2°37.011 257.7 3 257 11
2007-03-16 12:14:46 51°8.959 2°36.934 256.8 3 256 10.9
2007-03-16 12:15:46 51°8.946 2°36.858 257.2 3 256 10.9
2007-03-16 12:16:46 51°8.935 2°36.779 258.1 3 256 10.7
2007-03-16 12:17:46 51°8.923 2°36.701 257.1 3 255 10.6
2007-03-16 12:18:46 51°8.911 2°36.622 257.6 3.1 257 10.7
2007-03-16 12:19:46 51°8.898 2°36.543 257.1 3.1 257 10.6
2007-03-16 12:20:46 51°8.886 2°36.463 257.7 3.1 257 10.7
2007-03-16 12:21:46 51°8.873 2°36.383 257.2 3.1 257 10.7
2007-03-16 12:22:46 51°8.86 2°36.303 254.7 3.1 254 10.8
2007-03-16 12:23:46 51°8.841 2°36.227 246 3.1 243 10.6
2007-03-16 12:24:46 51°8.817 2°36.154 245.6 3.1 243 10.4
2007-03-16 12:25:46 51°8.795 2°36.08 245.9 3.1 244 10.3
2007-03-16 12:26:46 51°8.772 2°36.005 246.7 3.1 244 10.3
2007-03-16 12:27:46 51°8.75 2°35.93 244.5 3.2 243 10.3
2007-03-16 12:28:46 51°8.725 2°35.856 243.5 3.1 244 10.2
2007-03-16 12:29:46 51°8.709 2°35.778 258.3 3.1 260 10.3
2007-03-16 12:30:46 51°8.709 2°35.694 275.1 3.2 279 10.7
2007-03-16 12:31:46 51°8.729 2°35.616 299.1 3.2 305 11.5
2007-03-16 12:32:46 51°8.769 2°35.568 328.1 2.7 335 12.9
2007-03-16 12:33:46 51°8.807 2°35.555 346.9 2.2 358 14.2
2007-03-16 12:34:46 51°8.84 2°35.558 354.7 1.8 7 15
2007-03-16 12:35:46 51°8.868 2°35.566 354.1 1.5 13 15.6
2007-03-16 12:36:46 51°8.888 2°35.575 352 1.2 18 16
2007-03-16 12:37:46 51°8.904 2°35.586 352.4 1 28 16.2
2007-03-16 12:38:46 51°8.918 2°35.599 354.6 1 34 16.3
2007-03-16 12:39:46 51°8.942 2°35.616 14.1 2.7 22 16.6
2007-03-16 12:40:46 51°8.976 2°35.702 94 4.7 92 16.6
2007-03-16 12:41:46 51°8.916 2°35.78 172.5 5.9 165 14.9
2007-03-16 12:42:46 51°8.805 2°35.831 167.8 7.5 163 11.7
2007-03-16 12:43:46 51°8.71 2°35.856 187.6 4.4 182 9.6
2007-03-16 12:44:46 51°8.657 2°35.839 205.4 2.6 198 9.1
2007-03-16 12:45:46 51°8.624 2°35.818 211.9 2 205 8.7
2007-03-16 12:46:46 51°8.592 2°35.773 238.1 3 238 8.7
2007-03-16 12:47:46 51°8.587 2°35.685 276.4 3 278 8.9
2007-03-16 12:48:46 51°8.599 2°35.624 288.4 2.1 296 9.2
2007-03-16 12:49:46 51°8.621 2°35.582 318.7 2.1 327 9.6
2007-03-16 12:50:46 51°8.649 2°35.567 340.4 1.6 348 10
2007-03-16 12:51:46 51°8.686 2°35.569 15.1 3.1 17 10.6
2007-03-16 12:52:46 51°8.733 2°35.63 56.2 4.2 53 11.2
2007-03-16 12:53:46 51°8.763 2°35.737 80 4.5 74 11.1
2007-03-16 12:54:46 51°8.781 2°35.838 78.4 3.6 72 10.8
2007-03-16 12:55:46 51°8.8 2°35.921 73.7 3.1 67 10.7
2007-03-16 12:56:46 51°8.818 2°35.994 79.7 2.9 75 10.7
2007-03-16 12:57:46 51°8.82 2°36.067 107.9 2.8 100 10.3
2007-03-16 12:58:46 51°8.812 2°36.141 98.1 2.9 90 9.9
2007-03-16 12:59:46 51°8.813 2°36.222 98.9 3.2 91 9.6
2007-03-16 13:00:46 51°8.807 2°36.309 104.5 3.3 100 9.2
2007-03-16 13:01:46 51°8.799 2°36.398 104.6 3.4 98 9.1
2007-03-16 13:02:46 51°8.791 2°36.487 104.1 3.4 97 8.8
2007-03-16 13:03:46 51°8.784 2°36.575 103.2 3.4 98 8.8
2007-03-16 13:04:46 51°8.777 2°36.664 104 3.4 98 8.8
2007-03-16 13:05:46 51°8.766 2°36.752 108.9 3.4 103 8.8
2007-03-16 13:06:46 51°8.753 2°36.839 109.4 3.4 102 8.9
2007-03-16 13:07:46 51°8.742 2°36.927 108.8 3.4 102 9
2007-03-16 13:08:46 51°8.729 2°37.015 109.1 3.3 103 9.1
2007-03-16 13:09:46 51°8.717 2°37.103 109.6 3.4 103 9.1
2007-03-16 13:10:46 51°8.711 2°37.19 96.3 3.3 90 9.1
2007-03-16 13:11:46 51°8.716 2°37.28 88.6 3.4 82 9
2007-03-16 13:12:46 51°8.723 2°37.37 88.1 3.4 82 9
2007-03-16 13:13:46 51°8.73 2°37.46 88.7 3.5 83 8.9
2007-03-16 13:14:46 51°8.737 2°37.55 89.1 3.5 83 8.8
2007-03-16 13:15:46 51°8.743 2°37.64 89.3 3.4 84 8.7
2007-03-16 13:16:46 51°8.752 2°37.726 79.2 3.3 73 8.5
2007-03-16 13:17:46 51°8.775 2°37.806 66.3 3.4 61 8.6
2007-03-16 13:18:46 51°8.804 2°37.881 62.4 3.4 57 8.7
2007-03-16 13:19:46 51°8.833 2°37.958 66.3 3.4 62 8.7
2007-03-16 13:20:46 51°8.858 2°38.038 68.9 3.4 64 8.7
2007-03-16 13:21:46 51°8.882 2°38.119 70.3 3.4 65 8.8
2007-03-16 13:22:46 51°8.906 2°38.2 70.6 3.4 66 8.8
2007-03-16 13:23:46 51°8.928 2°38.281 71.3 3.4 67 8.8
2007-03-16 13:24:46 51°8.951 2°38.363 71.9 3.4 66 8.8
2007-03-16 13:25:46 51°8.972 2°38.445 73.1 3.3 69 8.8
2007-03-16 13:26:46 51°8.992 2°38.527 74.4 3.3 69 8.7
2007-03-16 13:27:46 51°9.01 2°38.609 75.4 3.3 71 8.8
2007-03-16 13:28:46 51°9.028 2°38.692 76.6 3.3 72 8.8
2007-03-16 13:29:46 51°9.036 2°38.775 95.8 3.2 93 8.7
2007-03-16 13:30:46 51°9.02 2°38.852 119.4 3 119 8.5
2007-03-16 13:31:46 51°8.989 2°38.915 136.4 3 136 8.3
2007-03-16 13:32:46 51°8.945 2°38.943 173.4 2.6 177 8.1
2007-03-16 13:33:46 51°8.911 2°38.941 185.2 1.8 187 8
2007-03-16 13:34:46 51°8.886 2°38.938 182.4 1.4 183 7.9
2007-03-16 13:35:46 51°8.866 2°38.937 177.4 1 179 7.9
2007-03-16 13:36:46 51°8.849 2°38.94 168 1.5 169 7.9
2007-03-16 13:37:46 51°8.824 2°38.978 115.3 2.4 112 7.8
2007-03-16 13:38:46 51°8.834 2°39.042 60.3 2.8 49 7.8
2007-03-16 13:39:46 51°8.936 2°39.134 35.4 10.4 29 7.7
2007-03-16 13:40:46 51°9.11 2°39.276 28.6 12.6 20 8
2007-03-16 13:41:46 51°9.322 2°39.351 18.4 13.3 13 8.7
2007-03-16 13:42:46 51°9.535 2°39.453 24.6 13.5 20 9.7
2007-03-16 13:43:45 51°9.74 2°39.577 26.8 13.3 21 10.4
2007-03-16 13:44:46 51°9.949 2°39.706 26.9 13.2 22 11.3
2007-03-16 13:45:45 51°10.152 2°39.832 26.9 13.3 21 12.6
2007-03-16 13:46:46 51°10.362 2°39.966 27.8 13.4 22 13.6
2007-03-16 13:47:46 51°10.565 2°40.117 31.6 13.5 27 14.1
2007-03-16 13:48:46 51°10.766 2°40.281 31.6 13.6 28 14
2007-03-16 13:49:46 51°10.917 2°40.532 66.7 13.3 64 13.5
2007-03-16 13:50:46 51°10.992 2°40.862 74.6 13.3 70 13.2
2007-03-16 13:51:46 51°11.076 2°41.186 69.3 13.3 64 12.8
2007-03-16 13:52:46 51°11.172 2°41.505 68.5 13.4 63 12.4
2007-03-16 13:53:46 51°11.254 2°41.833 77.2 13.3 72 12.2
2007-03-16 13:54:46 51°11.32 2°42.171 77.7 13.4 73 12.1
2007-03-16 13:55:46 51°11.386 2°42.508 77.6 13.3 73 11.7
2007-03-16 13:56:46 51°11.453 2°42.843 76.7 13.3 72 11.5
2007-03-16 13:57:46 51°11.503 2°43.186 83.2 13.3 80 11.5
2007-03-16 13:58:46 51°11.544 2°43.533 83.2 13.2 79 12.1
2007-03-16 13:59:46 51°11.587 2°43.878 82.8 13.3 79 12.2
2007-03-16 14:00:46 51°11.63 2°44.221 82.6 13.2 79 12.5
2007-03-16 14:01:46 51°11.673 2°44.565 82.4 13.1 78 12.7
2007-03-16 14:02:46 51°11.722 2°44.907 81.5 13.2 78 12.9
2007-03-16 14:03:46 51°11.77 2°45.249 81.3 13.2 78 13
2007-03-16 14:04:46 51°11.818 2°45.591 81 13.2 77 13.2
2007-03-16 14:05:46 51°11.866 2°45.931 81.6 13.2 78 13.2
2007-03-16 14:06:46 51°11.918 2°46.27 79.5 13.2 75 13.1
2007-03-16 14:07:46 51°11.973 2°46.607 79.1 13.1 75 13
2007-03-16 14:08:46 51°12.03 2°46.944 79.5 13.2 76 12.9
2007-03-16 14:09:46 51°12.109 2°47.266 69.6 13.1 65 12.8
2007-03-16 14:10:46 51°12.202 2°47.579 69.5 13 65 12.8
2007-03-16 14:11:46 51°12.298 2°47.889 65.7 13.1 61 12.5
2007-03-16 14:12:46 51°12.402 2°48.192 66.5 13.1 62 12.5
2007-03-16 14:13:46 51°12.507 2°48.495 65.3 13.1 61 12.4
2007-03-16 14:14:46 51°12.61 2°48.8 65.5 13.1 61 12.2
2007-03-16 14:15:46 51°12.713 2°49.104 66 13.1 61 12
2007-03-16 14:16:46 51°12.815 2°49.41 65.8 13.1 62 11.9
2007-03-16 14:17:46 51°12.918 2°49.714 66.2 13 62 11.8
2007-03-16 14:18:46 51°13.02 2°50.021 66.7 13 63 11.6
2007-03-16 14:19:46 51°13.127 2°50.321 63.6 13 60 11.5
2007-03-16 14:20:46 51°13.235 2°50.62 63.5 13 59 11.4
2007-03-16 14:21:46 51°13.344 2°50.919 64.5 13 60 11.3
2007-03-16 14:22:46 51°13.451 2°51.218 63.8 12.9 61 11.1
2007-03-16 14:23:46 51°13.557 2°51.518 63.8 13 60 11.1
2007-03-16 14:24:46 51°13.664 2°51.817 65 13 60 10.9
2007-03-16 14:25:46 51°13.77 2°52.116 64.6 13 61 10.8
2007-03-16 14:26:46 51°13.878 2°52.415 64.5 12.9 61 10.8
2007-03-16 14:27:46 51°13.985 2°52.71 64.1 12.9 60 10.6
2007-03-16 14:28:46 51°14.09 2°53.007 64.6 12.8 61 10.4
2007-03-16 14:29:46 51°14.194 2°53.303 64.5 12.7 61 10
2007-03-16 14:30:46 51°14.281 2°53.602 72 12.7 69 9.6
2007-03-16 14:31:46 51°14.345 2°53.924 78.9 12.8 77 9.4
2007-03-16 14:32:46 51°14.38 2°54.26 85.2 12.9 83 9.1
2007-03-16 14:33:46 51°14.4 2°54.599 89.2 13 89 10.2
2007-03-16 14:34:46 51°14.382 2°54.94 103.3 12.9 102 9.6
2007-03-16 14:35:47 51°14.276 2°55.241 130 12.7 128 11.1
2007-03-16 14:36:50 51°14.144 2°55.425 147.3 8.8 144 -999
2007-03-16 14:37:50 51°14.023 2°55.526 162.3 8.1 160 -999
2007-03-16 14:38:49 51°13.899 2°55.599 161.6 8.1 157 4.7
2007-03-16 14:39:49 51°13.778 2°55.684 155.2 7.9 150 11.5
2007-03-16 14:40:49 51°13.698 2°55.8 130.4 5.1 127 -999
2007-03-16 14:41:48 51°13.656 2°55.894 129.2 4.1 125 10.5
2007-03-16 14:42:48 51°13.62 2°55.98 125.3 3.6 119 -999
2007-03-16 14:43:50 51°13.604 2°56.057 104.5 2.3 100 -999
2007-03-16 14:44:48 51°13.599 2°56.092 115.4 0.4 105 6.7